Terminal Aerodrome Forecast
Issued by NWS

Home | Current Version | Previous Version | Text Only | Print | Product List | Glossary On
Versions: 1 2 3 4 5 6 7 8 9 10 11 12 13 14 15 16
020
FTUS44 KBMX 230520
TAFTCL
TAF
KTCL 230520Z 2306/2406 00000KT 6SM BR BKN070
     FM230900 00000KT 4SM BR FEW005 SCT025
     FM231300 32003KT P6SM SCT007 BKN025
     FM231700 33006KT P6SM VCTS BKN045CB=

USA.gov is the U.S. government's official web portal to all federal, state and local government web resources and services.